Marble Canyon, AZ (86036)

10:56 AM MST on July 06, 2015 (GMT -0700)
Page Municipal | | Change Station
CLOSE
Current Station
Airport
Location: Page,
Elevation: 4308 ft
Nearby Weather Stations

Elev 4308 ft 36.92 °N, 111.45 °W | Updated 3 minutes ago

Mostly Cloudy
Mostly Cloudy
82 °F
Feels Like 82 °F
N
7
Wind Variable Wind from NW

Today
High -- | Low -- °F
--% Chance of Precip.
Yesterday
High -- | Low -- °F
Precip. -- in
5:13 AM 7:48 PM
Waning Gibbous, 73% visible
Pressure 29.94 in
Visibility 10.0 miles
Clouds Overcast 11000 ft
Dew Point 52 °F
Humidity 35%
Rainfall 0.00 in
Snow Depth Not available.
UV 3 out of 12
Pollen 4.50 out of 12
Air Quality Not available.
Flu Activity Not available.
METAR KPGA 061753Z AUTO 31006KT 10SM OVC110 28/11 A3015 RMK AO2 SLP138 60000 T02780111 10278 20244 51004 TSNO

More Conditions Fewer Conditions

Pressure 29.94 in
Visibility 10.0 miles
Clouds Overcast 11000 ft
Dew Point 52 °F
Humidity 35%
Rainfall 0.00 in
Snow Depth Not available.
UV 3 out of 12
Pollen 4.50 out of 12
Air Quality Not available.
Flu Activity Not available.
METAR KPGA 061753Z AUTO 31006KT 10SM OVC110 28/11 A3015 RMK AO2 SLP138 60000 T02780111 10278 20244 51004 TSNO

More Conditions Fewer Conditions

10-Day Weather Forecast

×

Almanac

Astronomy

Jul. 06, 2015 Rise Set
Actual Time
Civil Twilight
Nautical Twilight
Astronomical Twilight
Moon
Length of Visible Light
Length of Day
Tomorrow will be .
, % of the Moon is Illuminated

Today's Extremes

State Highs State Lows

Community

WunderPhotos

Upload Photos

1,835,607 photos uploaded!

WunderBlogs® & News

Nearby

Air Quality

  Air Quality AQ Index Pollutant
Not available.

Snow Depth

Station Depth Elevation

Earthquake Activity

City Distance Mag. Time & Date
Minimum magnitude displayed is 2.5.

Coastal Water Temperatures

Place Temperature

Stations

Nearby Weather Stations

Station Location Temp. Windchill Dew Point Humidity Wind Precip. Elev Updated Type